Time;durP1;ratioP1;P1;durP2;ratioP2;P2;SDS_P1;SDS_P2;PMS_P1;PMS_P2;Temp;Humidity;BMP_temperature;BMP_pressure;BME280_temperature;BME280_humidity;BME280_pressure;Samples;Min_cycle;Max_cycle;Signal;HPM_P1;HPM_P2
2021/09/22 00:00:20;;;;;;;5.50;0.90;;;;;;;8.49;69.73;100488.56;1785804;79;21081;-56
2021/09/22 00:02:48;;;;;;;3.27;1.10;;;;;;;8.45;69.71;100487.08;1781808;79;21058;-55
2021/09/22 00:05:15;;;;;;;2.45;0.62;;;;;;;8.43;69.78;100493.39;1783221;79;21769;-57
2021/09/22 00:07:43;;;;;;;2.98;0.72;;;;;;;8.39;69.84;100490.11;1760486;79;21541;-57
2021/09/22 00:10:15;;;;;;;2.22;0.57;;;;;;;8.36;69.90;100491.15;1782278;79;21030;-56
2021/09/22 00:12:41;;;;;;;3.55;0.80;;;;;;;8.37;69.96;100484.97;1760314;79;21113;-56
2021/09/22 00:15:11;;;;;;;3.80;1.32;;;;;;;8.45;69.65;100487.56;1776933;79;21073;-55
2021/09/22 00:17:37;;;;;;;2.58;0.70;;;;;;;8.52;69.27;100496.67;1775251;79;21082;-56
2021/09/22 00:20:07;;;;;;;2.20;0.75;;;;;;;8.55;69.21;100488.11;1770642;79;20975;-56
2021/09/22 00:22:33;;;;;;;3.15;0.78;;;;;;;8.55;68.92;100489.91;1770960;80;21046;-56
2021/09/22 00:24:59;;;;;;;2.12;0.70;;;;;;;8.53;68.84;100477.37;1749765;81;21120;-56
2021/09/22 00:27:25;;;;;;;2.10;0.70;;;;;;;8.51;69.00;100475.34;1743826;81;21116;-56
2021/09/22 00:29:54;;;;;;;2.30;0.68;;;;;;;8.52;69.04;100480.48;1760161;79;22270;-56
2021/09/22 00:32:21;;;;;;;3.50;1.02;;;;;;;8.59;68.95;100476.96;1760060;80;21914;-55
2021/09/22 00:34:47;;;;;;;2.45;0.82;;;;;;;8.71;68.57;100470.84;1763820;80;21086;-55
2021/09/22 00:37:15;;;;;;;3.90;1.12;;;;;;;8.81;68.16;100468.86;1762000;80;21093;-56
2021/09/22 00:39:42;;;;;;;2.52;0.90;;;;;;;8.83;67.86;100475.69;1764733;80;20994;-56
2021/09/22 00:42:08;;;;;;;2.52;0.75;;;;;;;8.75;67.85;100464.89;1763155;80;21593;-56
2021/09/22 00:44:51;;;;;;;4.20;1.10;;;;;;;8.72;68.18;100468.59;1764040;80;21054;-56
2021/09/22 00:47:18;;;;;;;3.05;1.00;;;;;;;8.72;68.35;100461.17;1742445;80;21073;-58
2021/09/22 00:49:45;;;;;;;3.52;1.02;;;;;;;8.74;68.16;100462.76;1741331;80;21039;-56
2021/09/22 00:52:14;;;;;;;2.00;0.53;;;;;;;8.80;67.60;100465.41;1736420;80;21023;-56
2021/09/22 00:54:41;;;;;;;3.75;0.90;;;;;;;8.83;67.10;100461.25;1766131;80;21058;-57
2021/09/22 00:57:09;;;;;;;2.85;0.98;;;;;;;8.84;67.07;100460.77;1748873;80;21951;-55
2021/09/22 00:59:36;;;;;;;4.65;1.10;;;;;;;8.80;67.15;100451.45;1743701;80;21066;-57
2021/09/22 01:02:04;;;;;;;2.85;0.85;;;;;;;8.72;67.33;100452.85;1766561;80;21070;-56
2021/09/22 01:04:31;;;;;;;2.77;1.20;;;;;;;8.64;67.55;100448.62;1738675;80;21153;-57
2021/09/22 01:06:57;;;;;;;5.92;0.82;;;;;;;8.61;67.73;100460.64;1765812;80;21651;-57
2021/09/22 01:09:24;;;;;;;2.83;1.00;;;;;;;8.60;67.90;100453.70;1763319;80;21063;-56
2021/09/22 01:11:53;;;;;;;2.77;0.95;;;;;;;8.72;67.86;100454.61;1762411;80;21038;-56
2021/09/22 01:14:23;;;;;;;3.40;0.90;;;;;;;8.80;67.50;100447.52;1759707;80;21039;-56
2021/09/22 01:16:51;;;;;;;2.67;0.88;;;;;;;8.84;67.34;100445.89;1751689;80;21079;-56
2021/09/22 01:19:19;;;;;;;2.52;0.80;;;;;;;8.85;67.59;100444.92;1741241;80;21023;-56
2021/09/22 01:21:50;;;;;;;2.87;0.90;;;;;;;8.87;67.42;100441.70;1741562;81;21466;-56
2021/09/22 01:24:19;;;;;;;4.03;1.40;;;;;;;8.87;67.22;100446.95;1739992;80;21141;-57
2021/09/22 01:26:49;;;;;;;2.87;1.00;;;;;;;8.83;67.11;100449.94;1717530;81;21109;-57
2021/09/22 01:29:16;;;;;;;2.67;1.00;;;;;;;8.70;67.00;100448.16;1742413;80;21659;-56
2021/09/22 01:31:44;;;;;;;2.85;0.90;;;;;;;8.63;67.17;100443.00;1714890;81;21522;-57
2021/09/22 01:34:14;;;;;;;2.45;0.85;;;;;;;8.66;67.30;100441.95;1713897;80;21097;-56
2021/09/22 01:36:57;;;;;;;2.90;0.93;;;;;;;8.68;67.10;100438.26;1739300;81;21693;-56
2021/09/22 01:39:25;;;;;;;3.45;1.20;;;;;;;8.68;67.17;100436.13;1742267;80;21074;-57
2021/09/22 01:41:52;;;;;;;3.05;1.20;;;;;;;8.64;67.34;100438.13;1740275;80;21098;-56
2021/09/22 01:44:19;;;;;;;3.15;0.90;;;;;;;8.65;67.10;100431.91;1745101;81;21078;-57
2021/09/22 01:47:03;;;;;;;2.65;0.85;;;;;;;8.61;67.10;100434.41;1738388;80;21926;-56
2021/09/22 01:49:32;;;;;;;2.15;0.65;;;;;;;8.54;67.27;100435.31;1731358;80;22407;-56
2021/09/22 01:52:02;;;;;;;5.00;1.27;;;;;;;8.50;67.57;100446.12;1735310;80;21078;-56
2021/09/22 01:54:30;;;;;;;4.22;1.32;;;;;;;8.53;67.47;100449.36;1739717;80;21094;-56
2021/09/22 01:56:58;;;;;;;2.83;0.90;;;;;;;8.58;67.20;100452.98;1738945;80;21070;-56
2021/09/22 01:59:24;;;;;;;5.05;1.40;;;;;;;8.58;67.24;100437.24;1741268;80;21515;-56
2021/09/22 02:02:08;;;;;;;2.87;1.00;;;;;;;8.58;67.30;100442.48;1682952;83;21127;-57
2021/09/22 02:04:38;;;;;;;3.27;1.10;;;;;;;8.57;67.32;100442.59;1713644;80;21015;-57
2021/09/22 02:07:06;;;;;;;6.87;0.90;;;;;;;8.57;67.29;100438.66;1725912;82;21110;-57
2021/09/22 02:09:35;;;;;;;4.15;1.32;;;;;;;8.57;67.24;100432.92;1724722;81;21046;-57
2021/09/22 02:12:03;;;;;;;2.75;0.88;;;;;;;8.53;67.28;100432.80;1752734;79;21134;-57
2021/09/22 02:14:31;;;;;;;2.35;0.78;;;;;;;8.51;67.21;100434.21;1757207;81;21504;-56
2021/09/22 02:17:00;;;;;;;3.17;0.90;;;;;;;8.58;67.07;100435.92;1761281;79;21077;-57
2021/09/22 02:19:29;;;;;;;2.90;1.15;;;;;;;8.60;66.57;100434.03;1778024;79;21065;-56
2021/09/22 02:22:00;;;;;;;3.17;0.72;;;;;;;8.59;66.47;100429.75;1772873;79;21089;-56
2021/09/22 02:24:29;;;;;;;3.60;1.17;;;;;;;8.55;66.51;100426.96;1744110;80;21113;-56
2021/09/22 02:26:57;;;;;;;2.12;0.70;;;;;;;8.51;66.71;100428.97;1741651;79;21121;-56
2021/09/22 02:29:24;;;;;;;2.75;0.80;;;;;;;8.48;66.74;100429.17;1732360;80;20988;-56
2021/09/22 02:31:52;;;;;;;2.92;1.02;;;;;;;8.42;66.78;100432.19;1768420;79;21094;-56
2021/09/22 02:34:20;;;;;;;4.35;1.32;;;;;;;8.40;66.83;100425.39;1760255;80;21118;-56
2021/09/22 02:36:47;;;;;;;2.98;0.80;;;;;;;8.47;66.66;100421.42;1769757;79;21132;-56
2021/09/22 02:39:16;;;;;;;3.87;1.20;;;;;;;8.53;66.58;100416.58;1762802;80;21074;-56
2021/09/22 02:41:46;;;;;;;4.15;1.20;;;;;;;8.55;66.71;100416.47;1771615;79;21107;-56
2021/09/22 02:44:13;;;;;;;4.15;1.45;;;;;;;8.54;66.47;100427.92;1788595;79;21097;-57
2021/09/22 02:46:43;;;;;;;3.17;0.98;;;;;;;8.49;66.27;100428.70;1792564;79;21064;-56
2021/09/22 02:49:11;;;;;;;6.70;1.55;;;;;;;8.48;66.53;100427.03;1744267;80;21194;-57
2021/09/22 02:51:39;;;;;;;3.15;0.90;;;;;;;8.52;66.24;100423.23;1776240;78;21533;-56
2021/09/22 02:54:07;;;;;;;3.58;0.98;;;;;;;8.55;66.20;100419.92;1775832;79;21073;-57
2021/09/22 02:56:35;;;;;;;3.65;1.17;;;;;;;8.57;66.12;100422.92;1783872;79;20994;-57
2021/09/22 02:59:02;;;;;;;2.70;0.80;;;;;;;8.55;66.10;100423.02;1774380;79;21096;-57
2021/09/22 03:01:32;;;;;;;3.05;1.00;;;;;;;8.55;66.19;100421.23;1771287;79;21085;-57
2021/09/22 03:04:01;;;;;;;3.98;0.75;;;;;;;8.55;66.28;100428.27;1771018;79;21627;-57
2021/09/22 03:06:29;;;;;;;3.70;0.90;;;;;;;8.61;66.26;100429.16;1782920;79;21587;-58
2021/09/22 03:08:58;;;;;;;2.30;0.70;;;;;;;8.68;65.80;100429.08;1776284;79;20995;-56
2021/09/22 03:11:25;;;;;;;3.15;0.90;;;;;;;8.70;65.51;100421.93;1774858;79;21478;-57
2021/09/22 03:13:53;;;;;;;3.22;0.93;;;;;;;8.68;65.43;100431.70;1776315;79;21133;-57
2021/09/22 03:16:21;;;;;;;3.77;0.80;;;;;;;8.66;65.63;100430.98;1776918;79;21154;-57
2021/09/22 03:18:48;;;;;;;1.90;0.70;;;;;;;8.63;65.68;100432.98;1749758;80;21547;-56
2021/09/22 03:21:15;;;;;;;2.08;0.70;;;;;;;8.55;65.85;100424.34;1752138;79;21606;-57
2021/09/22 03:23:43;;;;;;;2.70;0.82;;;;;;;8.48;66.12;100429.17;1718925;81;21085;-57
2021/09/22 03:26:10;;;;;;;1.67;0.65;;;;;;;8.45;66.31;100429.87;1717939;80;21113;-56
2021/09/22 03:28:37;;;;;;;3.60;1.10;;;;;;;8.47;66.11;100431.45;1748352;79;21062;-58
2021/09/22 03:31:05;;;;;;;2.62;0.70;;;;;;;8.49;65.97;100430.87;1748792;81;21085;-57
2021/09/22 03:33:33;;;;;;;2.75;0.72;;;;;;;8.47;66.08;100431.45;1748240;79;21086;-57
2021/09/22 03:36:01;;;;;;;2.70;0.80;;;;;;;8.45;66.11;100425.45;1748481;80;21980;-57
2021/09/22 03:38:27;;;;;;;3.02;1.00;;;;;;;8.43;66.31;100431.28;1713466;81;21171;-57
2021/09/22 03:40:56;;;;;;;2.75;0.93;;;;;;;8.45;66.34;100425.94;1759830;79;21521;-57
2021/09/22 03:43:22;;;;;;;3.00;0.90;;;;;;;8.44;66.17;100429.05;1717627;81;21016;-56
2021/09/22 03:45:49;;;;;;;4.95;1.00;;;;;;;8.48;65.96;100422.63;1716019;81;21089;-65
2021/09/22 03:48:15;;;;;;;7.03;2.00;;;;;;;8.59;65.71;100420.56;1738880;80;21647;-56
2021/09/22 03:50:46;;;;;;;13.83;4.08;;;;;;;8.65;65.82;100431.09;1747827;80;22492;-56
2021/09/22 03:53:16;;;;;;;3.22;1.10;;;;;;;8.68;66.15;100425.62;1746199;80;21105;-55
2021/09/22 03:55:44;;;;;;;2.72;0.93;;;;;;;8.73;65.82;100434.83;1738718;80;21074;-56
2021/09/22 03:58:12;;;;;;;3.02;0.70;;;;;;;8.67;65.62;100431.32;1739310;80;21137;-56
2021/09/22 04:00:40;;;;;;;4.47;0.90;;;;;;;8.57;66.03;100434.24;1718952;80;21066;-56
2021/09/22 04:03:06;;;;;;;3.50;1.20;;;;;;;8.47;66.32;100435.84;1714964;80;21178;-56
2021/09/22 04:05:34;;;;;;;2.05;0.68;;;;;;;8.46;66.33;100433.70;1739205;80;21445;-56
2021/09/22 04:08:01;;;;;;;3.17;1.10;;;;;;;8.53;66.25;100431.48;1759559;80;21070;-56
2021/09/22 04:10:29;;;;;;;2.75;0.80;;;;;;;8.58;66.21;100437.24;1747772;80;21098;-56
2021/09/22 04:12:56;;;;;;;3.50;0.85;;;;;;;8.58;66.17;100433.79;1737028;80;21055;-57
2021/09/22 04:15:24;;;;;;;3.00;0.90;;;;;;;8.56;66.14;100433.89;1735814;81;21203;-56
2021/09/22 04:17:53;;;;;;;2.55;0.78;;;;;;;8.49;66.19;100429.55;1764814;80;21327;-55
2021/09/22 04:20:19;;;;;;;2.83;0.90;;;;;;;8.46;66.46;100435.02;1773215;80;21014;-56
2021/09/22 04:22:46;;;;;;;2.92;0.93;;;;;;;8.42;66.57;100433.50;1770338;80;21062;-55
2021/09/22 04:25:12;;;;;;;2.67;0.88;;;;;;;8.41;66.68;100426.59;1750616;80;21459;-56
2021/09/22 04:27:41;;;;;;;1.92;0.68;;;;;;;8.51;66.50;100429.45;1770678;78;21387;-56
2021/09/22 04:30:25;;;;;;;3.87;1.02;;;;;;;8.58;66.47;100429.38;1791814;78;21106;-56
2021/09/22 04:33:11;;;;;;;2.95;0.90;;;;;;;8.61;66.35;100429.16;1766208;79;21587;-57
2021/09/22 04:35:57;;;;;;;3.50;1.20;;;;;;;8.59;66.39;100427.13;1766526;80;21177;-56
2021/09/22 04:38:43;;;;;;;2.67;1.00;;;;;;;8.51;66.45;100425.03;1771680;80;21019;-55
2021/09/22 04:41:28;;;;;;;2.87;0.85;;;;;;;8.44;66.48;100426.87;1771678;80;21500;-58
2021/09/22 04:44:12;;;;;;;3.47;1.05;;;;;;;8.45;66.72;100420.21;1755722;80;21576;-56
2021/09/22 04:46:59;;;;;;;3.62;0.82;;;;;;;8.54;66.79;100423.51;1756673;80;21077;-56
2021/09/22 04:49:44;;;;;;;3.90;0.88;;;;;;;8.61;67.04;100429.61;1744370;80;21574;-62
2021/09/22 04:52:31;;;;;;;2.72;0.93;;;;;;;8.55;67.11;100428.27;1730494;81;21149;-60
2021/09/22 04:55:15;;;;;;;3.15;1.10;;;;;;;8.48;67.11;100428.34;1736626;81;21137;-65
2021/09/22 04:58:02;;;;;;;3.85;0.90;;;;;;;8.44;67.28;100425.11;1749149;80;21102;-62
2021/09/22 05:00:47;;;;;;;3.02;0.93;;;;;;;8.39;67.46;100438.98;1762135;80;21058;-64
2021/09/22 05:03:33;;;;;;;3.05;1.10;;;;;;;8.41;67.43;100429.22;1766480;80;21047;-63
2021/09/22 05:06:18;;;;;;;4.17;1.30;;;;;;;8.57;67.27;100434.72;1767158;80;21344;-64
2021/09/22 05:09:04;;;;;;;;;;;;;;;8.62;67.10;100439.99;1770350;80;21133;-64
2021/09/22 05:11:50;;;;;;;4.03;1.20;;;;;;;8.59;67.03;100436.30;1766391;80;20216;-56
2021/09/22 05:14:36;;;;;;;3.20;1.00;;;;;;;8.48;67.09;100434.42;1765872;80;21089;-56
2021/09/22 05:17:22;;;;;;;;;;;;;;;8.42;67.08;100441.84;1767623;80;21144;-57
2021/09/22 05:21:43;;;;;;;2.17;0.82;;;;;;;8.26;67.91;100435.55;1829894;76;22966;-56
2021/09/22 05:24:29;;;;;;;3.02;1.10;;;;;;;8.24;68.16;100440.89;1804136;78;21115;-55
2021/09/22 05:27:14;;;;;;;3.80;1.00;;;;;;;8.35;67.84;100440.13;1807259;77;21008;-56
2021/09/22 05:30:00;;;;;;;3.00;1.00;;;;;;;8.42;67.60;100437.92;1798005;78;22014;-56
2021/09/22 05:32:44;;;;;;;3.47;1.12;;;;;;;8.43;67.56;100444.40;1783732;78;21049;-56
2021/09/22 05:35:30;;;;;;;4.70;1.02;;;;;;;8.40;67.68;100442.44;1805341;78;21073;-56
2021/09/22 05:38:18;;;;;;;2.87;1.10;;;;;;;8.34;67.66;100441.92;1808034;78;21101;-57
2021/09/22 05:41:03;;;;;;;5.75;1.27;;;;;;;8.29;67.83;100431.41;1799474;78;22791;-58
2021/09/22 05:43:50;;;;;;;2.55;0.75;;;;;;;8.26;68.14;100440.78;1802731;78;20993;-56
2021/09/22 05:46:36;;;;;;;2.77;1.00;;;;;;;8.27;68.22;100443.30;1799285;77;21010;-56
2021/09/22 05:49:21;;;;;;;;;;;;;;;8.38;68.08;100441.23;1800886;78;21050;-56
2021/09/22 05:52:06;;;;;;;2.47;0.93;;;;;;;8.46;67.93;100444.67;1800511;78;20161;-58
2021/09/22 05:54:53;;;;;;;4.12;1.12;;;;;;;8.44;67.88;100439.98;1810290;77;21473;-57
2021/09/22 05:57:39;;;;;;;;;;;;;;;8.43;67.74;100441.78;1807471;78;21571;-56
2021/09/22 06:00:24;;;;;;;3.27;1.10;;;;;;;8.45;67.48;100438.56;1797132;78;20326;-55
2021/09/22 06:03:09;;;;;;;2.65;0.78;;;;;;;8.46;67.32;100432.88;1805834;77;22070;-56
2021/09/22 06:05:57;;;;;;;3.10;0.90;;;;;;;8.50;66.87;100434.31;1800918;77;21041;-64
2021/09/22 06:08:25;;;;;;;2.60;0.90;;;;;;;8.58;66.17;100435.92;1800025;77;21886;-61
2021/09/22 06:10:54;;;;;;;3.90;1.10;;;;;;;8.65;65.79;100431.91;1801219;77;21029;-61
2021/09/22 06:13:22;;;;;;;3.55;0.98;;;;;;;8.70;65.79;100437.67;1776361;78;21108;-60
2021/09/22 06:15:51;;;;;;;3.20;1.07;;;;;;;8.74;65.68;100433.89;1783764;77;21089;-63
2021/09/22 06:18:19;;;;;;;4.75;0.80;;;;;;;8.82;65.33;100437.75;1809167;77;21101;-62
2021/09/22 06:20:45;;;;;;;2.87;1.00;;;;;;;8.85;64.76;100440.16;1771694;78;21186;-60
2021/09/22 06:23:13;;;;;;;3.35;1.07;;;;;;;8.85;64.75;100436.22;1785077;78;21117;-60
2021/09/22 06:25:40;;;;;;;2.52;0.70;;;;;;;8.86;64.81;100436.56;1776598;78;21105;-62
2021/09/22 06:28:06;;;;;;;3.65;1.00;;;;;;;8.94;64.95;100431.61;1758244;79;21058;-57
2021/09/22 06:30:33;;;;;;;2.30;0.72;;;;;;;9.05;64.20;100434.30;1770057;78;21381;-55
2021/09/22 06:33:01;;;;;;;3.45;1.25;;;;;;;9.10;63.97;100437.91;1774688;78;21092;-55
2021/09/22 06:35:32;;;;;;;3.17;1.15;;;;;;;9.02;63.71;100437.14;1781595;79;21113;-55
2021/09/22 06:38:00;;;;;;;3.10;1.00;;;;;;;8.98;63.97;100441.41;1780462;79;21030;-56
2021/09/22 06:40:29;;;;;;;3.90;1.10;;;;;;;8.94;64.04;100439.48;1781289;78;21537;-56
2021/09/22 06:42:57;;;;;;;2.80;1.27;;;;;;;8.93;64.56;100441.27;1787524;79;21034;-57
2021/09/22 06:45:24;;;;;;;4.47;1.05;;;;;;;8.94;64.82;100443.41;1777639;78;21081;-56
2021/09/22 06:47:51;;;;;;;3.72;1.25;;;;;;;8.93;64.47;100437.82;1760802;80;21076;-56
2021/09/22 06:50:19;;;;;;;3.30;1.02;;;;;;;9.00;64.64;100440.84;1776906;78;21065;-57
2021/09/22 06:52:46;;;;;;;5.30;1.00;;;;;;;9.17;64.06;100443.55;1767322;80;21015;-56
2021/09/22 06:55:13;;;;;;;3.80;1.10;;;;;;;9.28;63.28;100445.75;1778192;78;21113;-56
2021/09/22 06:57:39;;;;;;;4.10;1.60;;;;;;;9.37;63.28;100446.84;1785037;78;23281;-55
2021/09/22 07:00:09;;;;;;;3.72;1.07;;;;;;;9.43;62.58;100446.41;1776252;78;21098;-56
2021/09/22 07:02:37;;;;;;;4.47;1.00;;;;;;;9.43;62.23;100442.47;1788932;79;21517;-56
2021/09/22 07:05:06;;;;;;;4.25;1.00;;;;;;;9.41;61.75;100437.78;1779530;78;21488;-55
2021/09/22 07:07:33;;;;;;;2.98;0.80;;;;;;;9.38;61.80;100441.11;1779105;79;21526;-56
2021/09/22 07:09:59;;;;;;;2.35;0.68;;;;;;;9.33;61.59;100448.49;1776816;78;21071;-56
2021/09/22 07:12:27;;;;;;;2.15;0.80;;;;;;;9.33;61.97;100443.23;1779702;78;21088;-57
2021/09/22 07:14:55;;;;;;;2.20;0.85;;;;;;;9.32;61.88;100455.55;1778320;78;21070;-56
2021/09/22 07:17:24;;;;;;;3.75;1.05;;;;;;;9.38;61.93;100451.62;1779861;78;21543;-57
2021/09/22 07:19:50;;;;;;;2.95;0.98;;;;;;;9.45;62.08;100448.44;1780379;78;21007;-57
2021/09/22 07:22:18;;;;;;;3.20;0.93;;;;;;;9.51;61.42;100448.93;1805201;77;20997;-56
2021/09/22 07:24:45;;;;;;;3.72;1.07;;;;;;;9.50;61.48;100441.53;1806887;77;21042;-57
2021/09/22 07:27:13;;;;;;;3.55;0.85;;;;;;;9.48;61.74;100446.90;1806027;77;21045;-56
2021/09/22 07:29:39;;;;;;;4.78;1.10;;;;;;;9.51;61.98;100451.07;1786287;78;21099;-55
2021/09/22 07:32:06;;;;;;;3.20;0.98;;;;;;;9.53;61.50;100447.88;1811188;78;21089;-56
2021/09/22 07:34:34;;;;;;;2.60;0.80;;;;;;;9.54;61.11;100442.97;1808243;77;23277;-56
2021/09/22 07:37:06;;;;;;;3.83;0.93;;;;;;;9.62;60.91;100441.92;1806214;77;21058;-57
2021/09/22 07:39:30;;;;;;;3.45;0.80;;;;;;;9.64;60.80;100443.12;1801956;77;21120;-56
2021/09/22 07:41:56;;;;;;;4.35;1.05;;;;;;;9.64;60.68;100443.12;1781646;78;21153;-54
2021/09/22 07:44:24;;;;;;;3.55;1.12;;;;;;;9.64;60.56;100445.75;1804757;78;21089;-51
2021/09/22 07:46:51;;;;;;;5.12;1.40;;;;;;;9.62;60.57;100448.97;1807076;78;21413;-56
2021/09/22 07:49:19;;;;;;;2.85;0.82;;;;;;;9.59;60.04;100446.57;1808675;77;21096;-55
2021/09/22 07:51:45;;;;;;;2.47;0.90;;;;;;;9.54;60.32;100450.02;1773914;78;21145;-56
2021/09/22 07:54:12;;;;;;;2.90;0.95;;;;;;;9.48;60.54;100448.21;1801542;77;21075;-57
2021/09/22 07:56:39;;;;;;;3.27;1.00;;;;;;;9.51;60.82;100449.75;1806328;77;22596;-56
2021/09/22 07:59:05;;;;;;;3.37;1.12;;;;;;;9.58;61.03;100441.80;1747785;81;21105;-56
2021/09/22 08:01:32;;;;;;;4.03;1.20;;;;;;;9.62;60.90;100445.03;1771262;80;21003;-55
2021/09/22 08:03:58;;;;;;;3.52;1.05;;;;;;;9.63;60.59;100444.92;1745850;80;21070;-55
2021/09/22 08:06:25;;;;;;;4.67;1.25;;;;;;;9.63;60.40;100447.55;1752412;80;21439;-55
2021/09/22 08:08:52;;;;;;;3.30;1.00;;;;;;;9.58;60.16;100443.11;1725953;81;21591;-56
2021/09/22 08:11:20;;;;;;;3.10;1.00;;;;;;;9.54;60.41;100442.14;1733947;81;21286;-55
2021/09/22 08:13:48;;;;;;;4.15;0.85;;;;;;;9.49;60.82;100447.23;1751006;79;21143;-56
2021/09/22 08:16:14;;;;;;;3.83;1.42;;;;;;;9.44;61.05;100444.61;1754936;80;22294;-56
2021/09/22 08:18:45;;;;;;;4.17;1.57;;;;;;;9.46;61.24;100440.07;1757392;80;21009;-55
2021/09/22 08:21:12;;;;;;;4.62;1.27;;;;;;;9.55;61.40;100439.85;1756095;81;21540;-56
2021/09/22 08:23:40;;;;;;;4.00;1.60;;;;;;;9.63;61.24;100442.74;1752798;79;21600;-56
2021/09/22 08:26:10;;;;;;;3.90;1.40;;;;;;;9.67;60.97;100443.72;1744233;79;21117;-55
2021/09/22 08:28:36;;;;;;;3.98;1.52;;;;;;;9.68;60.98;100437.98;1748939;79;21089;-55
2021/09/22 08:31:03;;;;;;;3.37;1.15;;;;;;;9.73;60.95;100438.95;1748907;79;21601;-56
2021/09/22 08:33:30;;;;;;;3.75;1.15;;;;;;;9.73;60.78;100433.22;1745300;80;21112;-56
2021/09/22 08:35:57;;;;;;;4.50;1.40;;;;;;;9.71;60.68;100432.98;1753600;79;21422;-56
2021/09/22 08:38:23;;;;;;;3.55;1.50;;;;;;;9.64;60.91;100433.44;1750849;79;21053;-56
2021/09/22 08:40:52;;;;;;;3.62;1.12;;;;;;;9.64;60.97;100434.75;1753322;79;21072;-56
2021/09/22 08:43:25;;;;;;;3.87;1.17;;;;;;;9.66;61.12;100433.33;1726599;81;21034;-61
2021/09/22 08:45:53;;;;;;;4.70;1.50;;;;;;;9.70;61.03;100435.23;1723303;81;21144;-60
2021/09/22 08:48:20;;;;;;;4.05;1.37;;;;;;;9.80;60.43;100433.58;1721875;79;21867;-59
2021/09/22 08:50:46;;;;;;;3.60;1.10;;;;;;;9.87;60.21;100434.81;1767911;79;21137;-59
2021/09/22 08:53:13;;;;;;;3.80;1.30;;;;;;;9.86;59.94;100434.44;1756208;80;21522;-59
2021/09/22 08:55:39;;;;;;;4.20;1.40;;;;;;;9.82;60.52;100436.47;1725970;81;21144;-59
2021/09/22 08:58:06;;;;;;;5.25;1.20;;;;;;;9.84;60.20;100428.47;1731268;81;21081;-59
2021/09/22 09:00:32;;;;;;;4.03;1.60;;;;;;;9.88;60.28;100440.41;1751131;79;21071;-59
2021/09/22 09:02:58;;;;;;;4.00;1.75;;;;;;;9.91;60.19;100441.98;1730922;81;21124;-59
2021/09/22 09:05:25;;;;;;;5.30;1.98;;;;;;;9.88;59.82;100435.64;1753003;81;21133;-60
2021/09/22 09:07:59;;;;;;;4.55;1.70;;;;;;;9.84;59.77;100429.78;1749374;79;21061;-59
2021/09/22 09:10:32;;;;;;;4.05;1.37;;;;;;;9.79;59.95;100438.02;1741408;80;21589;-59
2021/09/22 09:13:10;;;;;;;4.08;1.75;;;;;;;9.73;60.12;100440.27;1765099;80;21662;-60
2021/09/22 09:15:41;;;;;;;6.67;1.50;;;;;;;9.72;60.38;100439.44;1718305;81;21133;-60
2021/09/22 09:18:20;;;;;;;3.70;1.62;;;;;;;9.71;60.39;100448.27;1769173;80;20988;-59
2021/09/22 09:20:52;;;;;;;5.12;1.70;;;;;;;9.62;60.78;100451.11;1765280;78;21644;-59
2021/09/22 09:23:20;;;;;;;5.83;1.90;;;;;;;9.57;60.97;100443.23;1772071;79;21103;-60
2021/09/22 09:26:03;;;;;;;5.05;1.90;;;;;;;9.62;60.89;100443.72;1752090;80;21392;-59
2021/09/22 09:28:37;;;;;;;4.53;1.80;;;;;;;9.63;60.63;100430.47;1771554;79;21593;-63
2021/09/22 09:31:08;;;;;;;4.95;1.45;;;;;;;9.63;60.82;100438.34;1767966;80;21522;-58
2021/09/22 09:33:41;;;;;;;3.55;1.20;;;;;;;9.72;60.35;100439.44;1741155;81;21566;-60
2021/09/22 09:36:24;;;;;;;3.55;1.27;;;;;;;9.80;59.74;100429.64;1741781;80;21085;-59
2021/09/22 09:39:05;;;;;;;3.70;1.10;;;;;;;9.78;59.85;100431.07;1728271;79;21803;-59
2021/09/22 09:41:40;;;;;;;2.50;0.90;;;;;;;9.78;59.60;100427.62;1733975;80;21093;-60
2021/09/22 09:44:09;;;;;;;3.67;1.35;;;;;;;9.80;59.81;100440.16;1743966;81;22378;-59
2021/09/22 09:46:36;;;;;;;4.42;1.42;;;;;;;9.79;59.67;100434.56;1729546;81;21132;-59
2021/09/22 09:49:15;;;;;;;4.25;1.60;;;;;;;9.76;59.86;100432.98;1741051;80;21538;-59
2021/09/22 09:51:55;;;;;;;3.75;1.47;;;;;;;9.75;59.94;100430.02;1710972;81;21737;-59
2021/09/22 09:54:25;;;;;;;4.20;1.50;;;;;;;9.77;59.93;100431.22;1720009;81;21091;-58
2021/09/22 09:56:56;;;;;;;5.28;1.50;;;;;;;9.75;59.75;100434.41;1742826;80;21057;-58
2021/09/22 09:59:24;;;;;;;5.25;1.72;;;;;;;9.77;59.85;100433.84;1766279;80;21085;-58
2021/09/22 10:01:54;;;;;;;5.17;1.80;;;;;;;9.79;60.06;100430.13;1742449;80;21113;-58
2021/09/22 10:04:23;;;;;;;3.52;1.35;;;;;;;9.85;60.22;100433.62;1731330;80;21200;-60
2021/09/22 10:06:52;;;;;;;4.10;1.90;;;;;;;9.99;59.83;100427.30;1721987;80;21057;-59
2021/09/22 10:09:19;;;;;;;5.08;1.60;;;;;;;10.09;59.60;100428.74;1720838;79;21082;-60
2021/09/22 10:11:49;;;;;;;10.85;1.70;;;;;;;10.13;59.52;100431.48;1768193;79;21065;-61
2021/09/22 10:14:17;;;;;;;5.03;1.42;;;;;;;10.20;58.96;100424.81;1717073;81;21099;-60
2021/09/22 10:16:48;;;;;;;6.15;1.60;;;;;;;10.24;58.89;100428.03;1768104;79;21743;-59
2021/09/22 10:19:15;;;;;;;4.40;1.55;;;;;;;10.23;59.13;100429.80;1753110;79;21070;-60
2021/09/22 10:21:43;;;;;;;5.03;2.08;;;;;;;10.26;58.97;100430.06;1772228;80;21057;-60
2021/09/22 10:24:10;;;;;;;4.30;1.50;;;;;;;10.28;59.35;100427.31;1746315;78;21069;-61
2021/09/22 10:26:37;;;;;;;6.00;1.92;;;;;;;10.35;59.43;100431.16;1740400;81;21088;-60
2021/09/22 10:29:25;;;;;;;5.12;1.87;;;;;;;10.38;58.69;100430.44;1772006;79;21112;-59
2021/09/22 10:31:54;;;;;;;6.42;2.52;;;;;;;10.40;58.47;100438.20;1747550;80;21181;-56
2021/09/22 10:34:34;;;;;;;5.30;2.55;;;;;;;10.37;58.40;100429.23;1768742;78;21066;-55
2021/09/22 10:37:05;;;;;;;4.70;2.00;;;;;;;10.33;57.91;100427.82;1738194;80;21570;-55
2021/09/22 10:39:40;;;;;;;6.10;2.00;;;;;;;10.29;58.32;100429.83;1754615;79;21085;-55
2021/09/22 10:42:31;;;;;;;4.75;2.08;;;;;;;10.31;58.65;100437.59;1719195;81;21069;-55
2021/09/22 10:45:20;;;;;;;5.28;1.98;;;;;;;10.36;58.64;100423.64;1770766;78;21595;-54
2021/09/22 10:47:48;;;;;;;4.05;1.32;;;;;;;10.45;58.77;100426.84;1772736;80;21030;-55
2021/09/22 10:50:35;;;;;;;4.95;2.20;;;;;;;10.51;58.50;100420.28;1775962;79;21042;-56
2021/09/22 10:53:37;;;;;;;6.40;2.58;;;;;;;10.56;58.31;100422.07;1704128;80;21055;-56
2021/09/22 10:56:22;;;;;;;4.72;1.57;;;;;;;10.50;58.34;100423.37;1771341;80;21101;-56
2021/09/22 10:58:53;;;;;;;5.58;2.17;;;;;;;10.40;58.48;100421.94;1750918;80;21475;-56
2021/09/22 11:01:43;;;;;;;5.08;2.22;;;;;;;10.32;58.88;100422.19;1748888;80;21047;-58
2021/09/22 11:04:11;;;;;;;4.33;2.02;;;;;;;10.27;59.21;100421.23;1753459;80;21034;-54
2021/09/22 11:06:49;;;;;;;5.58;2.02;;;;;;;10.21;59.21;100422.52;1721628;81;21507;-57
2021/09/22 11:09:28;;;;;;;5.80;2.35;;;;;;;10.20;59.59;100424.81;1753300;80;21449;-57
2021/09/22 11:12:03;;;;;;;5.65;2.00;;;;;;;10.28;59.47;100415.48;1747306;80;21073;-57
2021/09/22 11:14:41;;;;;;;4.87;2.25;;;;;;;10.39;59.04;100418.97;1753090;80;21574;-55
2021/09/22 11:17:11;;;;;;;6.60;2.00;;;;;;;10.46;58.54;100425.08;1751178;78;21575;-54
2021/09/22 11:19:42;;;;;;;5.37;2.08;;;;;;;10.50;58.35;100416.80;1749214;80;21097;-55
2021/09/22 11:22:27;;;;;;;5.95;2.40;;;;;;;10.51;58.46;100418.48;1751355;81;21098;-55
2021/09/22 11:24:58;;;;;;;4.72;1.70;;;;;;;10.52;58.13;100413.59;1742359;80;21609;-57
2021/09/22 11:27:27;;;;;;;5.45;1.85;;;;;;;10.53;58.23;100413.92;1721751;81;21556;-55
2021/09/22 11:30:04;;;;;;;5.03;1.80;;;;;;;10.62;58.35;100412.84;1741539;80;21090;-55
2021/09/22 11:32:42;;;;;;;4.30;1.77;;;;;;;10.76;58.31;100411.27;1738590;80;21042;-56
2021/09/22 11:35:18;;;;;;;4.45;1.90;;;;;;;10.86;58.38;100408.25;1740430;80;21137;-55
2021/09/22 11:37:52;;;;;;;3.77;1.47;;;;;;;10.89;58.55;100409.32;1734709;81;21053;-55
2021/09/22 11:40:32;;;;;;;4.55;1.87;;;;;;;10.90;58.44;100407.02;1739001;80;21555;-54
2021/09/22 11:43:10;;;;;;;4.15;1.55;;;;;;;10.80;57.86;100420.58;1749343;80;21754;-56
2021/09/22 11:45:53;;;;;;;4.25;1.75;;;;;;;10.63;58.04;100416.67;1736995;80;21121;-55
2021/09/22 11:48:30;;;;;;;3.83;1.65;;;;;;;10.46;58.73;100408.80;1741229;80;21223;-55
2021/09/22 11:50:59;;;;;;;4.55;1.80;;;;;;;10.27;59.14;100422.55;1739440;80;21687;-55
2021/09/22 11:53:30;;;;;;;5.10;2.15;;;;;;;10.06;59.81;100413.20;1741164;81;21078;-54
2021/09/22 11:55:57;;;;;;;5.53;2.33;;;;;;;9.92;60.44;100404.22;1732799;81;21164;-55